createdAt,value
2022-09-20T00:01:10.772Z,1001.77
2022-09-20T00:11:18.178Z,1001.79
2022-09-20T00:21:23.345Z,1001.76
2022-09-20T00:31:30.569Z,1001.80
2022-09-20T00:41:36.071Z,1001.89
2022-09-20T00:51:42.440Z,1001.79
2022-09-20T01:01:49.665Z,1001.77
2022-09-20T01:11:56.621Z,1001.84
2022-09-20T01:22:03.726Z,1001.89
2022-09-20T01:32:10.702Z,1001.92
2022-09-20T01:42:18.285Z,1001.87
2022-09-20T01:52:25.400Z,1001.90
2022-09-20T02:02:30.654Z,1001.95
2022-09-20T02:12:37.846Z,1001.91
2022-09-20T02:22:43.316Z,1001.88
2022-09-20T02:32:50.432Z,1001.98
2022-09-20T02:42:56.165Z,1001.96
2022-09-20T02:53:04.289Z,1001.88
2022-09-20T03:03:11.732Z,1001.83
2022-09-20T03:13:18.854Z,1001.89
2022-09-20T03:23:24.290Z,1001.99
2022-09-20T03:33:31.475Z,1002.10
2022-09-20T03:43:38.665Z,1002.12
2022-09-20T03:53:45.718Z,1002.14
2022-09-20T04:03:50.970Z,1002.20
2022-09-20T04:13:57.994Z,1002.18
2022-09-20T04:24:03.681Z,1002.10
2022-09-20T04:34:10.857Z,1002.22
2022-09-20T04:44:16.136Z,1002.23
2022-09-20T04:54:23.044Z,1002.22
2022-09-20T05:04:28.406Z,1002.29
2022-09-20T05:14:35.461Z,1002.44
2022-09-20T05:24:40.550Z,1002.50
2022-09-20T05:34:47.243Z,1002.48
2022-09-20T05:44:54.057Z,1002.63
2022-09-20T05:55:01.028Z,1002.66
2022-09-20T06:05:06.255Z,1002.71
2022-09-20T06:15:13.150Z,1002.74
2022-09-20T06:25:18.824Z,1002.90
2022-09-20T06:35:25.525Z,1002.88
2022-09-20T06:45:32.583Z,1002.94
2022-09-20T06:55:39.716Z,1003.04
2022-09-20T07:05:46.353Z,1003.13
2022-09-20T07:15:51.703Z,1003.16
2022-09-20T07:25:57.030Z,1003.21
2022-09-20T07:36:02.773Z,1003.22
2022-09-20T07:46:08.462Z,1003.39
2022-09-20T07:56:14.159Z,1003.44
2022-09-20T08:06:19.613Z,1003.48
2022-09-20T08:16:25.200Z,1003.53
2022-09-20T08:26:30.186Z,1003.59
2022-09-20T08:36:37.005Z,1003.62
2022-09-20T08:46:43.105Z,1003.62
2022-09-20T08:56:48.921Z,1003.66
2022-09-20T09:06:54.787Z,1003.65
2022-09-20T09:17:00.671Z,1003.82
2022-09-20T09:27:06.611Z,1003.80
2022-09-20T09:37:12.043Z,1003.79
2022-09-20T09:47:17.592Z,1003.72
2022-09-20T09:57:22.988Z,1003.73
2022-09-20T10:07:28.657Z,1003.78
2022-09-20T10:17:34.237Z,1003.77
2022-09-20T10:27:39.925Z,1003.62
2022-09-20T10:37:49.176Z,1003.64
2022-09-20T10:47:54.922Z,1003.61
2022-09-20T10:58:00.580Z,1003.71
2022-09-20T11:08:05.860Z,1003.74
2022-09-20T11:18:11.722Z,1003.75
2022-09-20T11:28:17.396Z,1003.66
2022-09-20T11:38:22.684Z,1003.78
2022-09-20T11:48:27.972Z,1003.84
2022-09-20T11:59:53.299Z,1003.71
2022-09-20T12:09:58.837Z,1003.68
2022-09-20T12:20:04.201Z,1003.58
2022-09-20T12:30:10.348Z,1003.58
2022-09-20T12:40:15.800Z,1003.81
2022-09-20T12:50:21.984Z,1003.74
2022-09-20T13:00:27.143Z,1003.80
2022-09-20T13:10:34.479Z,1004.12
2022-09-20T13:20:39.571Z,1004.41
2022-09-20T13:30:44.826Z,1004.50
2022-09-20T13:40:50.820Z,1004.46
2022-09-20T13:50:55.939Z,1004.45
2022-09-20T14:01:01.560Z,1004.17
2022-09-20T14:11:06.885Z,1004.37
2022-09-20T14:21:12.583Z,1004.25
2022-09-20T14:31:19.426Z,1004.29
2022-09-20T14:41:25.487Z,1004.37
2022-09-20T14:51:31.363Z,1004.31
2022-09-20T15:01:36.693Z,1004.34
2022-09-20T15:11:41.578Z,1004.37
2022-09-20T15:21:46.952Z,1004.37
2022-09-20T15:31:52.224Z,1004.36
2022-09-20T15:41:57.518Z,1004.47
2022-09-20T15:52:02.679Z,1004.43
2022-09-20T16:02:07.980Z,1004.49
2022-09-20T16:12:13.541Z,1004.57
2022-09-20T16:22:18.969Z,1004.64
2022-09-20T16:32:24.158Z,1004.78
2022-09-20T16:42:29.183Z,1004.95
2022-09-20T16:52:35.054Z,1005.03
2022-09-20T17:02:44.596Z,1005.13
2022-09-20T17:12:51.511Z,1005.22
2022-09-20T17:22:57.448Z,1005.43
2022-09-20T17:33:02.846Z,1005.62
2022-09-20T17:43:07.868Z,1005.69
2022-09-20T17:53:13.445Z,1005.81
2022-09-20T18:03:18.965Z,1005.89
2022-09-20T18:13:24.659Z,1005.97
2022-09-20T18:23:30.165Z,1006.10
2022-09-20T18:33:35.953Z,1006.30
2022-09-20T18:43:41.029Z,1006.34
2022-09-20T18:53:46.796Z,1006.46
2022-09-20T19:03:52.284Z,1006.59
2022-09-20T19:13:59.163Z,1006.62
2022-09-20T19:24:06.389Z,1006.73
2022-09-20T19:34:13.194Z,1006.83
2022-09-20T19:44:19.996Z,1006.86
2022-09-20T19:54:27.304Z,1006.92
2022-09-20T20:04:34.327Z,1007.05
2022-09-20T20:14:41.647Z,1007.15
2022-09-20T20:24:47.917Z,1007.25
2022-09-20T20:34:54.338Z,1007.31
2022-09-20T20:45:01.202Z,1007.39
2022-09-20T20:55:07.563Z,1007.44
2022-09-20T21:05:14.227Z,1007.55
2022-09-20T21:15:20.742Z,1007.62
2022-09-20T21:25:27.535Z,1007.69
2022-09-20T21:35:34.021Z,1007.82
2022-09-20T21:45:40.506Z,1007.85
2022-09-20T21:55:47.242Z,1007.93
2022-09-20T22:05:53.932Z,1007.93
2022-09-20T22:16:01.217Z,1007.97
2022-09-20T22:26:08.602Z,1008.02
2022-09-20T22:36:14.073Z,1008.04
2022-09-20T22:46:21.404Z,1008.10
2022-09-20T22:56:27.275Z,1008.07
2022-09-20T23:06:33.805Z,1008.12
2022-09-20T23:16:39.370Z,1008.14
2022-09-20T23:26:46.677Z,1008.25
2022-09-20T23:36:51.759Z,1008.20
2022-09-20T23:46:58.866Z,1008.15
2022-09-20T23:57:04.148Z,1008.30
